TimeEDT,TemperatureF,Dew PointF,Humidity,Sea Level PressureIn,VisibilityMPH,Wind Direction,Wind SpeedMPH,Gust SpeedMPH,PrecipitationIn,Events,Conditions,WindDirDegrees,DateUTC
12:52 AM,62.1,57.0,84,29.73,10.0,SW,11.5,-,0.00,,Overcast,230,2013-10-20 04:52:00
1:28 AM,60.8,55.4,82,29.73,10.0,West,11.5,18.4,N/A,,Overcast,270,2013-10-20 05:28:00
1:52 AM,60.1,54.0,80,29.74,10.0,West,13.8,20.7,N/A,,Mostly Cloudy,260,2013-10-20 05:52:00
2:52 AM,57.0,51.1,81,29.75,10.0,West,9.2,-,N/A,,Clear,270,2013-10-20 06:52:00
3:52 AM,55.0,48.9,80,29.76,10.0,West,9.2,16.1,N/A,,Clear,260,2013-10-20 07:52:00
4:52 AM,54.0,48.0,80,29.78,10.0,West,9.2,16.1,N/A,,Clear,260,2013-10-20 08:52:00
5:52 AM,53.1,45.0,74,29.80,10.0,West,12.7,19.6,N/A,,Clear,280,2013-10-20 09:52:00
6:52 AM,50.0,43.0,77,29.83,10.0,West,5.8,-,N/A,,Clear,280,2013-10-20 10:52:00
7:52 AM,51.1,41.0,68,29.87,10.0,WNW,9.2,-,N/A,,Clear,290,2013-10-20 11:52:00
8:52 AM,53.1,39.9,61,29.90,10.0,West,10.4,-,N/A,,Clear,280,2013-10-20 12:52:00
9:52 AM,55.9,37.9,51,29.91,10.0,WNW,11.5,-,N/A,,Clear,300,2013-10-20 13:52:00
10:52 AM,59.0,36.0,42,29.92,10.0,NW,13.8,19.6,N/A,,Clear,320,2013-10-20 14:52:00
11:52 AM,61.0,34.0,36,29.92,10.0,WNW,10.4,-,N/A,,Clear,290,2013-10-20 15:52:00
12:52 PM,63.0,35.1,35,29.92,10.0,West,13.8,17.3,N/A,,Clear,280,2013-10-20 16:52:00
1:52 PM,63.0,34.0,34,29.91,10.0,WNW,15.0,19.6,N/A,,Clear,290,2013-10-20 17:52:00
2:52 PM,64.0,35.1,34,29.92,10.0,West,13.8,19.6,N/A,,Clear,280,2013-10-20 18:52:00
3:52 PM,63.0,35.1,35,29.93,10.0,WNW,8.1,-,N/A,,Clear,300,2013-10-20 19:52:00
4:52 PM,62.1,33.1,34,29.94,10.0,WNW,17.3,20.7,N/A,,Clear,290,2013-10-20 20:52:00
5:52 PM,60.1,33.1,36,29.96,10.0,West,6.9,16.1,N/A,,Clear,280,2013-10-20 21:52:00
6:52 PM,55.9,36.0,47,29.99,10.0,Calm,Calm,-,N/A,,Clear,0,2013-10-20 22:52:00
7:52 PM,55.0,36.0,49,30.00,10.0,WNW,5.8,-,N/A,,Clear,290,2013-10-20 23:52:00
8:52 PM,53.1,36.0,52,30.02,10.0,WNW,4.6,-,N/A,,Clear,290,2013-10-21 00:52:00
9:52 PM,52.0,37.0,57,30.04,10.0,WNW,4.6,-,N/A,,Clear,300,2013-10-21 01:52:00
10:52 PM,50.0,37.0,61,30.06,10.0,NW,3.5,-,N/A,,Clear,310,2013-10-21 02:52:00
11:52 PM,48.9,37.0,64,30.06,10.0,NW,4.6,-,N/A,,Clear,320,2013-10-21 03:52:00